CYFR

Fort Resolution Airport

Fort Resolution, Northwest Territories, Canada
METAR CYFR 242200Z 28011G18KT 15SM FEW050 OVC100 06/M01 A2976 RMK SC1AS8 SC TR /TR/41/ SNW CVR/MUCH LOOSE LAST STFD OBS/NEXT251400Z SLP088
Observed Flight Rules
Apr-24 @ 22:00 UTC (3 hours ago) Visual Flight Rules
Wind Visibility Clouds
280° at 11 knots
 Gusting to 18 knots
15 miles
  • Few at 5,000' AGL
  • Overcast at 10,000' AGL
Temperatures Readings
Current 6°C / 43°F
Dewpoint -1°C / 30°F
Humidity 61%
Altimeter 29.76" Hg
Pressure 1008.8 hPa
Elevation 164
METAR CYFR 242200Z 28011G18KT 15SM FEW050 OVC100 06/M01 A2976 RMK SC1AS8 SC TR /TR/41/ SNW CVR/MUCH LOOSE LAST STFD OBS/NEXT251400Z SLP088
Observed Flight Rules
Apr-24 @ 22:00 UTC
(3 hours ago)
VFR
Wind Visibility
280° at 11 knots
 Gusting to 18 knots
15 miles
Clouds
  • Few at 5,000' AGL
  • Overcast at 10,000' AGL
Temperature Dewpoint
6°C / 43°F -1°C / 30°F
Humidity Altimeter Pressure
61% 29.76" Hg 1008.8 hPa